Time;durP1;ratioP1;P1;durP2;ratioP2;P2;SDS_P1;SDS_P2;PMS_P1;PMS_P2;Temp;Humidity;BMP_temperature;BMP_pressure;BME280_temperature;BME280_humidity;BME280_pressure;Samples;Min_cycle;Max_cycle;Signal;HPM_P1;HPM_P2
2021/09/21 00:01:36;;;;;;;10.35;3.13;;;14.30;99.90;;;;;;4954606;29;20115;-78
2021/09/21 00:04:02;;;;;;;;;;;14.70;99.90;;;;;;4957484;28;20023;-78
2021/09/21 00:06:28;;;;;;;9.40;3.10;;;15.00;99.90;;;;;;4958219;29;20388;-78
2021/09/21 00:08:53;;;;;;;13.55;3.83;;;14.60;99.90;;;;;;4957991;28;20526;-78
2021/09/21 00:11:19;;;;;;;12.23;3.78;;;14.40;99.90;;;;;;4957900;29;20058;-78
2021/09/21 00:13:45;;;;;;;8.93;3.08;;;14.30;99.90;;;;;;4957894;29;20027;-78
2021/09/21 00:16:11;;;;;;;11.88;3.83;;;14.50;99.90;;;;;;4957701;29;20035;-78
2021/09/21 00:18:37;;;;;;;;;;;14.50;99.90;;;;;;4958378;29;20124;-78
2021/09/21 00:21:03;;;;;;;11.52;3.75;;;14.50;99.90;;;;;;4957874;29;20005;-78
2021/09/21 00:23:29;;;;;;;19.52;3.70;;;14.50;99.90;;;;;;4940483;29;20027;-78
2021/09/21 00:25:56;;;;;;;10.85;3.72;;;14.70;99.90;;;;;;4957667;28;20038;-78
2021/09/21 00:28:22;;;;;;;12.88;3.60;;;14.90;99.90;;;;;;4957577;28;20024;-78
2021/09/21 00:30:50;;;;;;;11.63;3.67;;;14.90;99.90;;;;;;4957901;28;20035;-78
2021/09/21 00:33:18;;;;;;;14.02;4.18;;;14.70;99.90;;;;;;4957484;28;20070;-78
2021/09/21 00:35:46;;;;;;;11.60;3.80;;;14.50;99.90;;;;;;4940202;29;20391;-78
2021/09/21 00:38:13;;;;;;;12.82;4.28;;;14.40;99.90;;;;;;4957343;29;20031;-78
2021/09/21 00:40:40;;;;;;;12.48;3.88;;;14.50;99.90;;;;;;4957348;28;20046;-78
2021/09/21 00:43:06;;;;;;;17.42;3.38;;;14.60;99.90;;;;;;4957308;29;20027;-78
2021/09/21 00:45:32;;;;;;;13.00;3.80;;;14.60;99.90;;;;;;4957317;29;20027;-78
2021/09/21 00:47:58;;;;;;;;;;;14.70;99.90;;;;;;4957815;28;20042;-78
2021/09/21 00:50:26;;;;;;;13.27;3.92;;;14.70;99.90;;;;;;4939956;29;20371;-78
2021/09/21 00:52:54;;;;;;;11.63;3.38;;;14.90;99.90;;;;;;4957128;28;20062;-78
2021/09/21 00:55:20;;;;;;;10.55;3.25;;;15.00;99.90;;;;;;4956928;28;20061;-78
2021/09/21 00:57:46;;;;;;;11.32;2.60;;;15.00;99.90;;;;;;4956950;28;20075;-78
2021/09/21 01:00:13;;;;;;;;;;;15.00;99.90;;;;;;4940233;29;20118;-78
2021/09/21 01:02:39;;;;;;;7.30;2.88;;;15.00;99.90;;;;;;4956399;28;19906;-78
2021/09/21 01:05:06;;;;;;;6.55;2.40;;;14.80;99.90;;;;;;4939768;29;20023;-78
2021/09/21 01:07:35;;;;;;;8.05;3.00;;;14.80;99.90;;;;;;4939721;29;20027;-78
2021/09/21 01:10:23;;;;;;;8.48;2.85;;;14.80;99.90;;;;;;4956889;29;20082;-78
2021/09/21 01:12:51;;;;;;;9.52;3.00;;;14.70;99.90;;;;;;4956828;29;20059;-78
2021/09/21 01:15:17;;;;;;;10.68;3.28;;;14.50;99.90;;;;;;4955780;28;20030;-78
2021/09/21 01:17:43;;;;;;;9.85;3.22;;;14.20;99.90;;;;;;4956941;28;20423;-78
2021/09/21 01:20:11;;;;;;;13.20;3.95;;;14.10;99.90;;;;;;4956659;29;20023;-78
2021/09/21 01:22:37;;;;;;;11.52;3.30;;;14.00;99.90;;;;;;4956588;29;20078;-78
2021/09/21 01:25:03;;;;;;;11.00;3.63;;;14.00;99.90;;;;;;4956532;28;20484;-78
2021/09/21 01:27:29;;;;;;;12.70;3.78;;;14.10;99.90;;;;;;4956524;29;20093;-78
2021/09/21 01:29:55;;;;;;;10.20;3.90;;;14.10;99.90;;;;;;4956429;29;20102;-78
2021/09/21 01:32:22;;;;;;;14.65;4.07;;;14.10;99.90;;;;;;4956474;29;20110;-78
2021/09/21 01:34:48;;;;;;;11.88;4.10;;;13.90;99.90;;;;;;4956319;29;20489;-77
2021/09/21 01:37:14;;;;;;;11.65;3.53;;;13.80;99.90;;;;;;4956384;28;20377;-77
2021/09/21 01:39:41;;;;;;;9.68;2.80;;;14.00;99.90;;;;;;4956320;29;20026;-78
2021/09/21 01:42:07;;;;;;;6.90;2.53;;;14.30;99.90;;;;;;4956255;28;20106;-78
2021/09/21 01:44:33;;;;;;;8.45;3.25;;;14.40;99.90;;;;;;4938970;29;20027;-78
2021/09/21 01:47:03;;;;;;;8.90;3.10;;;14.10;99.90;;;;;;4938874;29;20031;-77
2021/09/21 01:49:35;;;;;;;9.40;2.85;;;13.80;99.90;;;;;;4956460;29;20019;-78
2021/09/21 01:52:22;;;;;;;10.02;4.05;;;13.70;99.90;;;;;;4938597;29;20123;-78
2021/09/21 01:55:06;;;;;;;10.90;4.85;;;13.80;99.90;;;;;;4955893;29;20024;-77
2021/09/21 02:00:16;;;;;;;13.95;5.20;;;13.80;99.90;;;;;;4955975;29;20026;-77
2021/09/21 02:02:42;;;;;;;;;;;14.10;99.90;;;;;;4956341;29;20058;-77
2021/09/21 02:05:08;;;;;;;8.93;3.95;;;13.90;99.90;;;;;;4938712;29;20343;-77
2021/09/21 02:07:34;;;;;;;12.50;4.28;;;13.90;99.90;;;;;;4955970;29;20019;-78
2021/09/21 02:10:01;;;;;;;7.97;3.13;;;14.10;99.90;;;;;;4955846;29;20106;-78
2021/09/21 02:12:27;;;;;;;9.25;3.42;;;14.20;99.90;;;;;;4955802;28;20027;-78
2021/09/21 02:14:53;;;;;;;9.68;3.22;;;14.20;99.90;;;;;;4955624;28;20054;-78
2021/09/21 02:17:19;;;;;;;8.85;3.22;;;14.10;99.90;;;;;;4955934;29;20023;-77
2021/09/21 02:19:44;;;;;;;9.32;3.55;;;14.00;99.90;;;;;;4955629;29;20055;-78
2021/09/21 02:22:10;;;;;;;8.18;3.42;;;14.00;99.90;;;;;;4955580;29;20122;-77
2021/09/21 02:24:36;;;;;;;10.88;3.53;;;13.80;99.90;;;;;;4938488;29;20130;-77
2021/09/21 02:27:02;;;;;;;8.65;3.28;;;13.70;99.90;;;;;;4955296;28;20488;-77
2021/09/21 02:29:28;;;;;;;9.88;3.60;;;13.70;99.90;;;;;;4955589;29;20039;-78
2021/09/21 02:31:54;;;;;;;8.38;3.10;;;13.40;99.90;;;;;;4955682;29;20036;-78
2021/09/21 02:34:20;;;;;;;8.82;2.95;;;13.40;99.90;;;;;;4955366;28;20051;-77
2021/09/21 02:36:46;;;;;;;6.40;2.75;;;13.80;99.90;;;;;;4938191;29;20023;-77
2021/09/21 02:39:13;;;;;;;7.93;2.70;;;13.70;99.90;;;;;;4955361;28;20036;-77
2021/09/21 02:41:39;;;;;;;8.07;3.00;;;13.70;99.90;;;;;;4955280;28;20015;-77
2021/09/21 02:44:05;;;;;;;14.52;4.18;;;13.60;99.90;;;;;;4955361;29;20102;-77
2021/09/21 02:46:31;;;;;;;;;;;13.60;99.90;;;;;;4938410;29;20117;-78
2021/09/21 02:48:57;;;;;;;10.55;4.68;;;13.70;99.90;;;;;;4955337;29;20389;-77
2021/09/21 02:51:23;;;;;;;;;;;13.20;99.90;;;;;;4955999;29;20027;-78
2021/09/21 02:53:48;;;;;;;11.68;3.70;;;13.00;99.90;;;;;;4955249;29;19961;-77
2021/09/21 02:56:15;;;;;;;10.80;4.22;;;13.30;99.90;;;;;;4955105;29;20055;-78
2021/09/21 02:58:43;;;;;;;;;;;13.30;99.90;;;;;;4955377;28;20551;-77
2021/09/21 03:01:11;;;;;;;9.68;4.38;;;13.20;99.90;;;;;;4955157;28;19913;-77
2021/09/21 03:04:02;;;;;;;10.20;3.78;;;13.10;99.90;;;;;;4955093;28;20104;-78
2021/09/21 03:06:35;;;;;;;11.30;4.20;;;13.20;99.90;;;;;;4954616;29;20050;-78
2021/09/21 03:09:35;;;;;;;8.57;3.92;;;13.30;99.90;;;;;;4955150;29;20094;-77
2021/09/21 03:17:27;;;;;;;13.05;5.28;;;13.30;99.90;;;;;;4955025;29;20118;-77
2021/09/21 03:19:54;;;;;;;11.88;4.65;;;13.10;99.90;;;;;;4955012;29;20031;-78
2021/09/21 03:22:21;;;;;;;11.90;4.22;;;13.10;99.90;;;;;;4937759;29;20078;-78
2021/09/21 03:24:46;;;;;;;8.35;3.30;;;13.10;99.90;;;;;;4954909;28;20096;-77
2021/09/21 03:27:12;;;;;;;10.05;3.70;;;13.30;99.90;;;;;;4937725;29;20039;-77
2021/09/21 03:29:38;;;;;;;13.40;4.43;;;13.30;99.90;;;;;;4954936;29;20059;-78
2021/09/21 03:32:04;;;;;;;11.15;3.58;;;13.20;99.90;;;;;;4955152;28;20093;-77
2021/09/21 03:34:32;;;;;;;;;;;13.10;99.90;;;;;;4955198;28;20082;-78
2021/09/21 03:36:58;;;;;;;10.73;4.00;;;13.40;99.90;;;;;;4955206;28;19946;-77
2021/09/21 03:39:24;;;;;;;9.95;2.92;;;13.20;99.90;;;;;;4958013;29;20130;-77
2021/09/21 03:41:50;;;;;;;8.15;3.50;;;13.40;99.90;;;;;;4958411;28;20091;-78
2021/09/21 03:44:16;;;;;;;8.93;3.60;;;13.50;99.90;;;;;;4958443;28;20110;-77
2021/09/21 03:46:41;;;;;;;9.23;3.95;;;13.40;99.90;;;;;;4958405;29;20058;-77
2021/09/21 03:49:07;;;;;;;8.50;3.55;;;13.50;99.90;;;;;;4958337;28;20035;-78
2021/09/21 03:51:33;;;;;;;11.68;3.72;;;13.50;99.90;;;;;;4958383;29;20024;-77
2021/09/21 03:53:59;;;;;;;10.20;3.92;;;13.40;99.90;;;;;;4958373;29;20424;-77
2021/09/21 03:56:25;;;;;;;9.70;4.20;;;13.40;99.90;;;;;;4957745;29;20089;-79
2021/09/21 03:58:51;;;;;;;11.55;4.13;;;13.40;99.90;;;;;;4957735;28;20110;-77
2021/09/21 04:01:17;;;;;;;10.60;3.55;;;13.30;99.90;;;;;;4958147;29;20503;-77
2021/09/21 04:03:42;;;;;;;8.82;3.38;;;13.50;99.90;;;;;;4958168;28;20480;-78
2021/09/21 04:06:08;;;;;;;7.72;3.00;;;13.70;99.90;;;;;;4958040;29;20369;-78
2021/09/21 04:08:34;;;;;;;8.70;3.05;;;13.80;99.90;;;;;;4958027;28;20058;-77
2021/09/21 04:11:00;;;;;;;8.43;2.63;;;13.60;99.90;;;;;;4957967;28;20029;-77
2021/09/21 04:13:25;;;;;;;8.00;2.60;;;13.50;99.90;;;;;;4958167;29;20031;-77
2021/09/21 04:15:51;;;;;;;8.70;2.90;;;13.70;99.90;;;;;;4940593;29;20031;-78
2021/09/21 04:18:17;;;;;;;7.97;3.13;;;13.70;99.90;;;;;;4957832;28;20031;-78
2021/09/21 04:20:43;;;;;;;8.45;2.90;;;13.80;99.90;;;;;;4940572;29;20016;-78
2021/09/21 04:23:09;;;;;;;10.90;2.90;;;13.90;99.90;;;;;;4957804;29;20032;-78
2021/09/21 04:25:34;;;;;;;;;;;13.90;99.90;;;;;;4958136;29;20492;-77
2021/09/21 04:28:00;;;;;;;9.88;3.80;;;13.90;99.90;;;;;;4956416;29;19913;-78
2021/09/21 04:30:27;;;;;;;;;;;13.90;99.90;;;;;;4958037;29;20062;-78
2021/09/21 04:32:53;;;;;;;8.70;3.60;;;13.70;99.90;;;;;;4957564;29;19940;-78
2021/09/21 04:35:19;;;;;;;13.57;3.65;;;13.40;99.90;;;;;;4957505;29;20023;-78
2021/09/21 04:37:45;;;;;;;9.38;3.58;;;13.30;99.90;;;;;;4957452;28;20027;-78
2021/09/21 04:40:11;;;;;;;16.02;3.70;;;13.50;99.90;;;;;;4957621;29;20024;-77
2021/09/21 04:42:37;;;;;;;;;;;13.80;99.90;;;;;;4957818;29;20058;-77
2021/09/21 04:45:03;;;;;;;9.73;3.10;;;13.80;99.90;;;;;;4957855;28;19961;-77
2021/09/21 04:47:29;;;;;;;9.18;3.40;;;13.70;99.90;;;;;;4957464;29;20027;-78
2021/09/21 04:49:55;;;;;;;10.93;3.60;;;13.60;99.90;;;;;;4957240;28;20031;-77
2021/09/21 04:52:21;;;;;;;8.43;3.40;;;13.80;99.90;;;;;;4957289;29;20031;-78
2021/09/21 04:54:47;;;;;;;10.18;3.55;;;13.70;99.90;;;;;;4939827;29;20071;-78
2021/09/21 04:57:13;;;;;;;16.42;4.18;;;13.50;99.90;;;;;;4956943;28;20047;-77
2021/09/21 04:59:38;;;;;;;15.82;4.63;;;13.40;99.90;;;;;;4957446;29;20435;-77
2021/09/21 05:02:04;;;;;;;11.63;4.22;;;13.50;99.90;;;;;;4957021;28;20098;-77
2021/09/21 05:04:30;;;;;;;11.27;4.93;;;13.50;99.90;;;;;;4956958;28;20479;-78
2021/09/21 05:06:56;;;;;;;11.80;4.88;;;13.40;99.90;;;;;;4956944;28;20071;-77
2021/09/21 05:09:22;;;;;;;11.32;5.10;;;13.20;99.90;;;;;;4956891;29;20027;-77
2021/09/21 05:11:47;;;;;;;9.60;4.45;;;13.00;99.90;;;;;;4956820;28;20027;-77
2021/09/21 05:14:14;;;;;;;10.93;4.47;;;13.10;99.90;;;;;;4956723;28;20172;-77
2021/09/21 05:16:41;;;;;;;10.82;3.53;;;13.10;99.90;;;;;;4956819;28;20034;-77
2021/09/21 05:19:08;;;;;;;14.20;3.45;;;13.30;99.90;;;;;;4956593;29;20059;-77
2021/09/21 05:21:36;;;;;;;11.25;3.15;;;13.60;99.90;;;;;;4956631;29;20500;-77
2021/09/21 05:24:03;;;;;;;9.35;3.20;;;13.70;99.90;;;;;;4956650;29;20468;-77
2021/09/21 05:26:28;;;;;;;9.23;3.42;;;13.60;99.90;;;;;;4956619;29;20492;-77
2021/09/21 05:28:54;;;;;;;14.35;3.22;;;13.60;99.90;;;;;;4956532;28;20027;-78
2021/09/21 05:31:20;;;;;;;14.32;3.22;;;13.30;99.90;;;;;;4956477;29;20106;-78
2021/09/21 05:33:46;;;;;;;13.40;3.70;;;13.40;99.90;;;;;;4956460;28;20539;-77
2021/09/21 05:36:11;;;;;;;14.38;4.25;;;13.40;99.90;;;;;;4956332;29;20166;-77
2021/09/21 05:38:37;;;;;;;18.55;6.82;;;13.10;99.90;;;;;;4939165;29;20118;-77
2021/09/21 05:41:03;;;;;;;18.52;7.93;;;12.90;99.90;;;;;;4956341;28;20023;-78
2021/09/21 05:43:29;;;;;;;15.23;5.60;;;13.00;99.90;;;;;;4956263;28;20102;-78
2021/09/21 05:45:54;;;;;;;13.57;6.05;;;13.30;99.90;;;;;;4956249;29;20024;-77
2021/09/21 05:48:20;;;;;;;11.15;4.55;;;13.50;99.90;;;;;;4956353;29;20042;-77
2021/09/21 05:50:46;;;;;;;9.60;4.50;;;13.40;99.90;;;;;;4956135;29;20440;-77
2021/09/21 05:53:12;;;;;;;11.65;4.70;;;13.40;99.90;;;;;;4938750;29;20483;-78
2021/09/21 05:55:37;;;;;;;10.93;4.25;;;13.50;99.90;;;;;;4955880;29;20496;-77
2021/09/21 05:58:03;;;;;;;9.43;4.05;;;13.50;99.90;;;;;;4955836;28;20471;-78
2021/09/21 06:00:29;;;;;;;13.30;4.57;;;13.60;99.90;;;;;;4938300;29;20023;-77
2021/09/21 06:02:55;;;;;;;20.70;5.22;;;13.70;99.90;;;;;;4955900;28;20020;-77
2021/09/21 06:05:21;;;;;;;18.58;5.07;;;13.60;99.90;;;;;;4955697;29;20042;-78
2021/09/21 06:07:51;;;;;;;20.38;5.72;;;13.60;99.90;;;;;;4956176;29;20027;-78
2021/09/21 06:10:19;;;;;;;14.70;4.78;;;13.30;99.90;;;;;;4955756;28;20037;-78
2021/09/21 06:12:46;;;;;;;14.02;4.80;;;13.40;99.90;;;;;;4938399;29;20038;-77
2021/09/21 06:15:14;;;;;;;19.52;4.75;;;13.60;99.90;;;;;;4955615;28;20023;-78
2021/09/21 06:17:43;;;;;;;48.67;7.50;;;13.70;99.90;;;;;;4955584;28;20031;-78
2021/09/21 06:20:11;;;;;;;16.50;5.90;;;13.30;99.90;;;;;;4955598;29;20106;-78
2021/09/21 06:22:38;;;;;;;15.80;5.07;;;13.50;99.90;;;;;;4955284;28;20031;-77
2021/09/21 06:25:06;;;;;;;19.98;5.55;;;13.70;99.90;;;;;;4955535;28;20031;-78
2021/09/21 06:27:32;;;;;;;20.10;5.20;;;13.70;99.90;;;;;;4938181;29;20035;-78
2021/09/21 06:29:57;;;;;;;23.70;6.63;;;13.70;99.90;;;;;;4955495;28;20081;-77
2021/09/21 06:32:23;;;;;;;23.70;6.32;;;13.80;99.90;;;;;;4955495;28;20033;-78
2021/09/21 06:34:49;;;;;;;20.55;5.85;;;13.80;99.90;;;;;;4955218;29;20063;-78
2021/09/21 06:37:15;;;;;;;30.60;7.07;;;13.70;99.90;;;;;;4938013;29;20027;-78
2021/09/21 06:39:46;;;;;;;;;;;13.40;99.90;;;;;;4955832;28;20015;-77
2021/09/21 06:42:13;;;;;;;21.67;6.30;;;13.10;99.90;;;;;;4953746;29;20287;-78
2021/09/21 06:44:41;;;;;;;13.70;5.57;;;12.90;99.90;;;;;;4938003;29;20032;-78
2021/09/21 06:47:09;;;;;;;12.55;4.85;;;13.10;99.90;;;;;;4938744;29;20043;-78
2021/09/21 06:49:37;;;;;;;11.43;4.05;;;13.80;99.90;;;;;;4906524;29;20095;-78
2021/09/21 06:52:40;;;;;;;12.48;4.43;;;14.30;99.90;;;;;;4955210;28;20554;-78
2021/09/21 06:55:07;;;;;;;12.90;4.55;;;14.50;99.90;;;;;;4955114;28;20034;-78
2021/09/21 06:57:34;;;;;;;10.00;4.57;;;14.40;99.90;;;;;;4954965;28;20071;-78
2021/09/21 07:00:03;;;;;;;11.15;4.85;;;14.70;99.90;;;;;;4937949;29;20110;-77
2021/09/21 07:02:29;;;;;;;12.15;4.65;;;14.70;99.90;;;;;;4955096;29;20020;-78
2021/09/21 07:04:55;;;;;;;14.98;4.65;;;14.40;99.90;;;;;;4955099;29;20050;-78
2021/09/21 07:07:21;;;;;;;14.15;3.83;;;14.40;99.90;;;;;;4937781;29;20168;-78
2021/09/21 07:09:46;;;;;;;;;;;14.80;99.90;;;;;;4955480;28;20108;-78
2021/09/21 07:12:12;;;;;;;9.88;3.10;;;15.70;99.90;;;;;;4955132;28;19996;-78
2021/09/21 07:14:38;;;;;;;10.07;3.47;;;16.30;99.90;;;;;;4958805;28;20526;-78
2021/09/21 07:17:04;;;;;;;;;;;16.50;99.90;;;;;;4959352;29;20031;-78
2021/09/21 07:19:30;;;;;;;6.47;3.08;;;16.30;99.90;;;;;;4959025;28;19906;-78
2021/09/21 07:21:55;;;;;;;9.32;3.30;;;16.40;99.90;;;;;;4958903;29;20019;-78
2021/09/21 07:24:22;;;;;;;10.00;3.63;;;16.90;99.90;;;;;;4958762;29;20503;-78
2021/09/21 07:26:50;;;;;;;8.80;3.42;;;17.30;99.90;;;;;;4958662;28;20391;-78
2021/09/21 07:29:17;;;;;;;8.65;3.20;;;17.60;99.90;;;;;;4942248;29;20082;-78
2021/09/21 07:31:43;;;;;;;8.55;3.35;;;17.90;99.90;;;;;;4958663;29;20027;-78
2021/09/21 07:34:09;;;;;;;10.70;3.22;;;17.90;99.90;;;;;;4958647;28;20058;-78
2021/09/21 07:36:35;;;;;;;8.88;3.20;;;17.90;99.90;;;;;;4958466;28;20023;-78
2021/09/21 07:39:02;;;;;;;12.20;3.97;;;17.90;99.90;;;;;;4958959;29;20480;-78
2021/09/21 07:41:27;;;;;;;25.90;5.20;;;18.30;99.90;;;;;;4958505;29;20019;-78
2021/09/21 07:43:53;;;;;;;12.18;3.08;;;18.70;99.90;;;;;;4958481;28;20023;-78
2021/09/21 07:46:19;;;;;;;7.68;3.30;;;18.90;99.90;;;;;;4941101;29;20023;-78
2021/09/21 07:48:45;;;;;;;11.30;4.25;;;19.10;99.90;;;;;;4958352;29;20149;-78
2021/09/21 07:51:11;;;;;;;8.45;4.32;;;19.00;99.90;;;;;;4958645;28;20028;-78
2021/09/21 07:53:37;;;;;;;8.10;4.50;;;18.90;99.90;;;;;;4940788;29;20035;-78
2021/09/21 07:56:03;;;;;;;9.45;4.35;;;18.80;99.90;;;;;;4958039;29;20046;-78
2021/09/21 07:58:29;;;;;;;16.52;4.93;;;18.70;99.90;;;;;;4957181;28;20511;-78
2021/09/21 08:00:55;;;;;;;9.48;5.10;;;18.60;99.90;;;;;;4957243;28;20023;-78
2021/09/21 08:03:22;;;;;;;25.75;5.72;;;18.70;99.90;;;;;;4957217;28;20123;-78
2021/09/21 08:05:48;;;;;;;9.73;5.00;;;18.70;99.90;;;;;;4956859;28;20388;-78
2021/09/21 08:08:16;;;;;;;7.80;4.45;;;18.70;99.90;;;;;;4956850;29;20031;-78
2021/09/21 08:10:43;;;;;;;9.43;5.68;;;18.70;99.90;;;;;;4957053;29;20027;-78
2021/09/21 08:13:08;;;;;;;15.75;6.90;;;18.90;99.90;;;;;;4956788;28;20399;-78
2021/09/21 08:15:34;;;;;;;14.20;6.68;;;18.70;99.90;;;;;;4956657;28;20055;-78
2021/09/21 08:18:01;;;;;;;12.10;6.53;;;18.70;99.90;;;;;;4956760;28;20031;-78
2021/09/21 08:20:27;;;;;;;12.88;6.25;;;19.10;99.90;;;;;;4956504;29;20432;-78
2021/09/21 08:22:55;;;;;;;10.02;6.30;;;19.30;99.90;;;;;;4956655;28;20035;-78
2021/09/21 08:25:21;;;;;;;13.13;6.75;;;19.70;99.90;;;;;;4938996;29;20027;-78
2021/09/21 08:27:47;;;;;;;12.10;6.22;;;20.40;99.90;;;;;;4956706;29;20062;-78
2021/09/21 08:30:14;;;;;;;9.60;5.82;;;20.70;99.90;;;;;;4956532;28;20488;-79
2021/09/21 08:32:40;;;;;;;12.20;6.75;;;21.00;99.90;;;;;;4956739;29;20106;-78
2021/09/21 08:35:07;;;;;;;11.13;6.22;;;21.30;99.90;;;;;;4956392;28;20519;-78
2021/09/21 08:37:33;;;;;;;11.65;6.55;;;21.40;99.90;;;;;;4956988;28;20372;-79
2021/09/21 08:39:59;;;;;;;12.27;6.47;;;21.60;99.90;;;;;;4956402;28;20030;-79
2021/09/21 08:42:25;;;;;;;24.38;8.73;;;22.40;99.90;;;;;;4956926;29;20090;-79
2021/09/21 08:44:51;;;;;;;15.45;8.10;;;22.80;99.90;;;;;;4939080;29;20023;-79
2021/09/21 08:47:17;;;;;;;14.98;7.30;;;24.10;99.90;;;;;;4956537;29;20106;-79
2021/09/21 08:49:44;;;;;;;12.18;7.15;;;27.00;98.70;;;;;;4956295;29;20027;-79
2021/09/21 08:52:10;;;;;;;13.48;7.43;;;28.50;95.50;;;;;;4956474;29;20153;-80
2021/09/21 08:54:36;;;;;;;14.48;8.45;;;28.70;92.90;;;;;;4938799;29;20432;-79
2021/09/21 08:59:35;;;;;;;21.08;9.90;;;28.60;91.70;;;;;;5071182;28;20405;-78
2021/09/21 09:02:10;;;;;;;12.88;7.75;;;28.90;90.60;;;;;;5070664;28;20021;-80
2021/09/21 09:04:40;;;;;;;15.43;8.32;;;30.10;87.50;;;;;;5069255;28;20028;-80
2021/09/21 09:07:06;;;;;;;27.65;9.73;;;30.70;82.80;;;;;;5070524;28;20025;-81
2021/09/21 09:09:35;;;;;;;13.55;8.00;;;31.20;78.60;;;;;;5070692;28;20027;-80
2021/09/21 09:12:04;;;;;;;13.30;8.60;;;32.00;77.70;;;;;;5069182;28;20087;-80
2021/09/21 09:14:36;;;;;;;14.45;7.60;;;32.70;71.70;;;;;;5070358;28;20025;-79
2021/09/21 09:17:04;;;;;;;32.90;8.60;;;32.20;70.90;;;;;;5068977;28;20035;-81
2021/09/21 09:19:35;;;;;;;24.48;8.15;;;32.80;68.70;;;;;;5070214;28;20028;-80
2021/09/21 09:22:05;;;;;;;13.63;7.75;;;31.70;68.20;;;;;;5070390;28;20082;-79
2021/09/21 09:24:32;;;;;;;17.92;8.32;;;30.60;72.00;;;;;;5068916;28;20397;-79
2021/09/21 09:26:57;;;;;;;11.82;7.60;;;30.60;70.70;;;;;;5070131;28;20020;-79
2021/09/21 09:29:23;;;;;;;20.55;7.47;;;31.20;70.30;;;;;;5070148;28;20032;-80
2021/09/21 09:31:49;;;;;;;18.52;6.55;;;33.10;65.70;;;;;;5043587;28;20441;-80
2021/09/21 09:34:28;;;;;;;12.07;7.28;;;32.00;64.30;;;;;;5050134;28;20037;-80
2021/09/21 09:37:00;;;;;;;12.65;5.75;;;31.90;65.80;;;;;;5049006;28;20076;-79
2021/09/21 09:39:30;;;;;;;12.93;4.90;;;31.10;64.50;;;;;;5048172;28;20127;-80
2021/09/21 09:41:58;;;;;;;11.98;5.50;;;33.30;61.00;;;;;;5049633;28;20026;-80
2021/09/21 09:44:31;;;;;;;9.50;4.43;;;34.40;59.80;;;;;;5050239;28;20510;-80
2021/09/21 09:47:00;;;;;;;12.48;4.78;;;36.70;53.50;;;;;;5048604;28;20024;-80
2021/09/21 09:49:31;;;;;;;10.68;4.80;;;36.40;53.10;;;;;;5050203;28;20033;-80
2021/09/21 09:52:05;;;;;;;10.70;4.22;;;34.50;54.10;;;;;;5049731;28;20025;-80
2021/09/21 09:54:31;;;;;;;11.75;5.30;;;35.50;54.40;;;;;;5047327;28;20025;-81
2021/09/21 09:56:57;;;;;;;10.43;5.68;;;37.70;49.50;;;;;;5030308;28;20432;-81
2021/09/21 09:59:25;;;;;;;10.30;5.20;;;37.60;49.90;;;;;;5029739;28;20494;-80
2021/09/21 10:01:52;;;;;;;9.05;4.88;;;35.20;50.70;;;;;;5029446;28;20022;-80
2021/09/21 10:04:17;;;;;;;9.93;5.30;;;33.40;54.90;;;;;;5030189;28;20660;-80
2021/09/21 10:06:44;;;;;;;9.98;4.97;;;33.60;54.30;;;;;;5029757;28;20025;-79
2021/09/21 10:09:10;;;;;;;12.85;5.00;;;32.50;55.50;;;;;;5026046;28;20080;-80
2021/09/21 10:11:37;;;;;;;10.25;4.18;;;34.40;55.60;;;;;;5016626;28;20072;-80
2021/09/21 10:14:05;;;;;;;12.07;5.30;;;35.50;51.60;;;;;;5016496;28;20069;-80
2021/09/21 10:16:31;;;;;;;10.35;4.57;;;33.20;53.40;;;;;;5016547;28;20033;-80
2021/09/21 10:18:59;;;;;;;15.85;6.05;;;35.80;53.10;;;;;;5014841;28;20022;-80
2021/09/21 10:21:37;;;;;;;10.57;5.90;;;37.00;50.50;;;;;;5014827;28;20030;-81
2021/09/21 10:24:06;;;;;;;9.93;6.50;;;38.90;48.60;;;;;;5014822;28;20060;-81
2021/09/21 10:26:40;;;;;;;19.38;6.10;;;39.70;46.70;;;;;;5016051;28;20099;-81
2021/09/21 10:29:07;;;;;;;9.95;5.50;;;38.50;48.10;;;;;;5014465;28;20057;-80
2021/09/21 10:31:34;;;;;;;8.50;5.47;;;38.20;48.60;;;;;;5015978;28;20021;-81
2021/09/21 10:34:17;;;;;;;10.30;5.32;;;39.70;46.00;;;;;;5014591;28;20026;-81
2021/09/21 10:36:54;;;;;;;10.25;6.60;;;40.10;46.30;;;;;;5014355;28;20028;-81
2021/09/21 10:39:23;;;;;;;10.43;6.40;;;40.30;44.40;;;;;;5015844;28;20084;-81
2021/09/21 10:41:59;;;;;;;8.93;6.13;;;40.40;44.20;;;;;;5015808;28;20014;-81
2021/09/21 10:44:26;;;;;;;13.50;6.50;;;40.60;44.50;;;;;;5015760;28;20026;-81
2021/09/21 10:46:58;;;;;;;10.55;5.90;;;40.40;42.60;;;;;;5015673;28;20037;-81
2021/09/21 10:49:24;;;;;;;9.45;6.30;;;39.30;43.30;;;;;;5015625;28;20056;-80
2021/09/21 10:51:51;;;;;;;9.65;4.70;;;40.40;42.40;;;;;;5011267;28;20107;-81
2021/09/21 10:54:27;;;;;;;9.23;5.43;;;37.70;44.30;;;;;;5010087;28;20036;-81
2021/09/21 10:56:53;;;;;;;11.02;5.32;;;38.90;44.20;;;;;;5007772;28;20025;-80
2021/09/21 10:59:19;;;;;;;10.90;5.70;;;38.50;43.90;;;;;;5014964;28;20516;-81
2021/09/21 11:01:49;;;;;;;10.23;6.05;;;39.00;43.80;;;;;;5015381;28;20022;-81
2021/09/21 11:04:15;;;;;;;8.82;5.72;;;40.00;43.40;;;;;;5014071;28;20022;-81
2021/09/21 11:06:45;;;;;;;11.10;6.45;;;40.00;43.10;;;;;;5015567;28;20052;-81
2021/09/21 11:09:11;;;;;;;9.73;5.40;;;41.60;42.10;;;;;;5015286;28;20026;-80
2021/09/21 11:11:38;;;;;;;8.02;4.10;;;39.40;41.80;;;;;;5015300;28;20033;-80
2021/09/21 11:14:04;;;;;;;9.95;4.82;;;36.80;44.50;;;;;;5013911;28;20121;-80
2021/09/21 11:16:31;;;;;;;7.05;3.80;;;35.10;46.20;;;;;;5015279;28;20080;-81
2021/09/21 11:18:58;;;;;;;8.00;4.28;;;37.80;44.00;;;;;;5013698;28;20061;-81
2021/09/21 11:21:23;;;;;;;11.50;5.07;;;38.00;43.70;;;;;;5014037;28;20025;-81
2021/09/21 11:23:49;;;;;;;9.27;5.50;;;39.60;42.70;;;;;;5013658;28;20026;-81
2021/09/21 11:26:15;;;;;;;12.38;6.45;;;41.70;41.40;;;;;;5014870;28;20040;-82
2021/09/21 11:28:46;;;;;;;11.32;6.20;;;42.00;40.80;;;;;;5015093;28;20034;-81
2021/09/21 11:31:13;;;;;;;8.23;5.28;;;41.20;40.10;;;;;;5013270;28;20029;-81
2021/09/21 11:33:41;;;;;;;11.13;5.43;;;40.20;40.80;;;;;;5013562;28;20121;-81
2021/09/21 11:36:15;;;;;;;11.45;5.47;;;39.20;41.20;;;;;;5015015;28;20072;-80
2021/09/21 11:38:47;;;;;;;10.75;5.70;;;41.00;40.70;;;;;;5013034;28;20091;-81
2021/09/21 11:41:13;;;;;;;12.15;5.35;;;41.70;39.10;;;;;;5015010;28;20029;-81
2021/09/21 11:43:40;;;;;;;10.35;6.72;;;42.00;40.60;;;;;;5015157;28;20041;-82
2021/09/21 11:46:06;;;;;;;9.27;5.40;;;43.00;38.20;;;;;;5014582;28;20101;-81
2021/09/21 11:48:32;;;;;;;11.25;4.47;;;40.50;40.00;;;;;;5014552;28;20030;-80
2021/09/21 11:50:58;;;;;;;7.93;4.20;;;36.40;43.00;;;;;;5014715;28;20022;-80
2021/09/21 11:53:25;;;;;;;9.05;4.70;;;35.10;44.30;;;;;;5013114;28;20121;-81
2021/09/21 11:55:57;;;;;;;9.10;4.30;;;36.40;45.60;;;;;;5013041;28;20030;-80
2021/09/21 11:58:31;;;;;;;10.75;4.80;;;34.50;46.10;;;;;;5012666;28;20057;-81
2021/09/21 12:01:05;;;;;;;9.98;4.10;;;37.40;42.30;;;;;;5014900;28;20481;-81
2021/09/21 12:03:31;;;;;;;11.32;4.50;;;34.90;44.80;;;;;;5014319;28;20453;-80
2021/09/21 12:05:57;;;;;;;9.18;4.68;;;37.90;45.00;;;;;;5014194;28;20109;-81
2021/09/21 12:08:28;;;;;;;8.93;5.15;;;41.10;41.60;;;;;;5014741;28;20026;-81
2021/09/21 12:11:06;;;;;;;7.20;4.32;;;41.80;39.90;;;;;;5014469;28;20096;-81
2021/09/21 12:13:32;;;;;;;9.35;4.75;;;44.40;39.50;;;;;;5014118;28;20089;-81
2021/09/21 12:16:00;;;;;;;9.25;5.03;;;42.70;38.60;;;;;;5014063;28;20055;-82
2021/09/21 12:18:28;;;;;;;8.35;6.40;;;44.30;38.90;;;;;;5014273;28;20030;-82
2021/09/21 12:20:58;;;;;;;9.50;8.48;;;46.60;37.30;;;;;;5014034;28;20101;-81
2021/09/21 12:23:30;;;;;;;10.93;9.80;;;48.30;36.00;;;;;;5014336;28;20038;-82
2021/09/21 12:25:57;;;;;;;9.15;3.70;;;47.80;34.70;;;;;;5013965;28;20064;-81
2021/09/21 12:28:44;;;;;;;9.52;4.60;;;39.70;38.20;;;;;;5012607;28;20029;-81
2021/09/21 12:31:17;;;;;;;8.15;5.80;;;42.20;39.00;;;;;;5012318;28;20048;-81
2021/09/21 12:33:46;;;;;;;9.25;6.90;;;45.80;36.30;;;;;;5012295;28;20112;-82
2021/09/21 12:36:30;;;;;;;9.25;7.50;;;46.30;35.50;;;;;;5013784;28;20026;-82
2021/09/21 12:38:58;;;;;;;7.60;4.30;;;47.30;35.10;;;;;;5014220;28;20351;-81
2021/09/21 12:41:25;;;;;;;7.53;3.38;;;42.70;36.00;;;;;;5012445;28;20049;-80
2021/09/21 12:43:54;;;;;;;8.30;4.03;;;37.70;39.80;;;;;;5013690;28;20022;-80
2021/09/21 12:46:20;;;;;;;10.88;6.03;;;40.10;40.70;;;;;;5013904;28;20565;-81
2021/09/21 12:48:46;;;;;;;10.77;8.30;;;45.70;37.20;;;;;;5012311;28;20026;-82
2021/09/21 12:51:12;;;;;;;12.18;10.07;;;48.60;35.10;;;;;;5013647;28;20022;-81
2021/09/21 12:53:38;;;;;;;13.65;11.50;;;49.10;34.10;;;;;;5013446;28;20046;-82
2021/09/21 12:56:12;;;;;;;11.35;10.15;;;49.50;33.60;;;;;;5012164;28;20034;-82
2021/09/21 12:58:41;;;;;;;13.50;12.10;;;48.60;34.20;;;;;;5013312;28;20045;-82